sensor_id;sensor_type;location;lat;lon;timestamp;P1;durP1;ratioP1;P2;durP2;ratioP2
44588;SDS011;30298;52.562;13.414;2023-03-26T00:01:05;3.55;;;2.47;;
44588;SDS011;30298;52.562;13.414;2023-03-26T00:03:31;4.72;;;2.70;;
44588;SDS011;30298;52.562;13.414;2023-03-26T00:06:01;4.07;;;2.70;;
44588;SDS011;30298;52.562;13.414;2023-03-26T00:08:28;3.60;;;2.28;;
44588;SDS011;30298;52.562;13.414;2023-03-26T00:10:53;3.58;;;2.65;;
44588;SDS011;30298;52.562;13.414;2023-03-26T00:13:18;5.20;;;2.80;;
44588;SDS011;30298;52.562;13.414;2023-03-26T00:15:44;5.50;;;2.63;;
44588;SDS011;30298;52.562;13.414;2023-03-26T00:18:09;3.80;;;2.60;;
44588;SDS011;30298;52.562;13.414;2023-03-26T00:20:34;4.33;;;2.37;;
44588;SDS011;30298;52.562;13.414;2023-03-26T00:22:59;7.47;;;2.97;;
44588;SDS011;30298;52.562;13.414;2023-03-26T00:25:27;5.38;;;2.45;;
44588;SDS011;30298;52.562;13.414;2023-03-26T00:27:53;4.43;;;2.80;;
44588;SDS011;30298;52.562;13.414;2023-03-26T00:30:18;3.83;;;2.63;;
44588;SDS011;30298;52.562;13.414;2023-03-26T00:32:45;2.83;;;2.47;;
44588;SDS011;30298;52.562;13.414;2023-03-26T00:35:11;3.10;;;2.47;;
44588;SDS011;30298;52.562;13.414;2023-03-26T00:37:37;5.45;;;2.53;;
44588;SDS011;30298;52.562;13.414;2023-03-26T00:40:02;2.38;;;1.98;;
44588;SDS011;30298;52.562;13.414;2023-03-26T00:42:32;6.00;;;2.53;;
44588;SDS011;30298;52.562;13.414;2023-03-26T00:44:57;5.17;;;2.30;;
44588;SDS011;30298;52.562;13.414;2023-03-26T00:47:23;3.67;;;2.63;;
44588;SDS011;30298;52.562;13.414;2023-03-26T00:49:49;4.55;;;2.28;;
44588;SDS011;30298;52.562;13.414;2023-03-26T00:52:15;3.97;;;2.17;;
44588;SDS011;30298;52.562;13.414;2023-03-26T00:54:46;4.93;;;2.38;;
44588;SDS011;30298;52.562;13.414;2023-03-26T00:57:12;2.30;;;1.90;;
44588;SDS011;30298;52.562;13.414;2023-03-26T00:59:37;4.75;;;2.33;;
44588;SDS011;30298;52.562;13.414;2023-03-26T01:02:03;3.22;;;2.30;;
44588;SDS011;30298;52.562;13.414;2023-03-26T01:04:30;6.73;;;2.10;;
44588;SDS011;30298;52.562;13.414;2023-03-26T01:09:56;4.15;;;2.15;;
44588;SDS011;30298;52.562;13.414;2023-03-26T01:12:24;6.40;;;1.88;;
44588;SDS011;30298;52.562;13.414;2023-03-26T01:14:50;3.85;;;1.90;;
44588;SDS011;30298;52.562;13.414;2023-03-26T01:17:16;3.28;;;1.80;;
44588;SDS011;30298;52.562;13.414;2023-03-26T01:19:58;2.70;;;2.38;;
44588;SDS011;30298;52.562;13.414;2023-03-26T01:22:36;2.10;;;1.80;;
44588;SDS011;30298;52.562;13.414;2023-03-26T01:25:02;3.33;;;2.15;;
44588;SDS011;30298;52.562;13.414;2023-03-26T01:27:33;2.58;;;2.00;;
44588;SDS011;30298;52.562;13.414;2023-03-26T01:30:15;3.95;;;1.90;;
44588;SDS011;30298;52.562;13.414;2023-03-26T01:32:55;5.15;;;2.40;;
44588;SDS011;30298;52.562;13.414;2023-03-26T01:38:31;3.37;;;2.10;;
44588;SDS011;30298;52.562;13.414;2023-03-26T01:40:39;3.90;;;2.25;;
44588;SDS011;30298;52.562;13.414;2023-03-26T01:43:22;3.22;;;2.30;;
44588;SDS011;30298;52.562;13.414;2023-03-26T01:45:49;2.80;;;2.10;;
44588;SDS011;30298;52.562;13.414;2023-03-26T01:48:15;2.35;;;1.95;;
44588;SDS011;30298;52.562;13.414;2023-03-26T01:50:41;4.13;;;2.22;;
44588;SDS011;30298;52.562;13.414;2023-03-26T01:53:07;2.67;;;2.30;;
44588;SDS011;30298;52.562;13.414;2023-03-26T01:58:40;4.13;;;1.90;;
44588;SDS011;30298;52.562;13.414;2023-03-26T02:01:16;2.67;;;2.03;;
44588;SDS011;30298;52.562;13.414;2023-03-26T02:03:45;2.10;;;1.50;;
44588;SDS011;30298;52.562;13.414;2023-03-26T02:06:14;2.40;;;1.73;;
44588;SDS011;30298;52.562;13.414;2023-03-26T02:08:44;4.03;;;1.75;;
44588;SDS011;30298;52.562;13.414;2023-03-26T02:11:13;5.05;;;1.98;;
44588;SDS011;30298;52.562;13.414;2023-03-26T02:13:39;2.25;;;1.80;;
44588;SDS011;30298;52.562;13.414;2023-03-26T02:16:06;2.47;;;2.10;;
44588;SDS011;30298;52.562;13.414;2023-03-26T02:18:32;2.85;;;1.80;;
44588;SDS011;30298;52.562;13.414;2023-03-26T02:21:04;3.13;;;1.67;;
44588;SDS011;30298;52.562;13.414;2023-03-26T02:23:30;1.92;;;1.73;;
44588;SDS011;30298;52.562;13.414;2023-03-26T02:25:59;2.30;;;1.77;;
44588;SDS011;30298;52.562;13.414;2023-03-26T02:28:24;2.43;;;2.10;;
44588;SDS011;30298;52.562;13.414;2023-03-26T02:30:50;3.70;;;2.00;;
44588;SDS011;30298;52.562;13.414;2023-03-26T02:33:16;3.08;;;2.00;;
44588;SDS011;30298;52.562;13.414;2023-03-26T02:35:41;2.13;;;1.70;;
44588;SDS011;30298;52.562;13.414;2023-03-26T02:38:09;2.45;;;2.10;;
44588;SDS011;30298;52.562;13.414;2023-03-26T02:40:38;4.38;;;2.20;;
44588;SDS011;30298;52.562;13.414;2023-03-26T02:43:03;2.87;;;2.23;;
44588;SDS011;30298;52.562;13.414;2023-03-26T02:45:28;5.90;;;2.47;;
44588;SDS011;30298;52.562;13.414;2023-03-26T02:47:54;3.17;;;2.67;;
44588;SDS011;30298;52.562;13.414;2023-03-26T02:50:19;4.30;;;2.30;;
44588;SDS011;30298;52.562;13.414;2023-03-26T02:52:44;3.03;;;2.47;;
44588;SDS011;30298;52.562;13.414;2023-03-26T02:55:13;6.28;;;3.67;;
44588;SDS011;30298;52.562;13.414;2023-03-26T02:57:38;4.85;;;2.35;;
44588;SDS011;30298;52.562;13.414;2023-03-26T03:02:38;4.28;;;2.20;;
44588;SDS011;30298;52.562;13.414;2023-03-26T03:05:04;5.13;;;3.60;;
44588;SDS011;30298;52.562;13.414;2023-03-26T03:07:30;3.55;;;2.42;;
44588;SDS011;30298;52.562;13.414;2023-03-26T03:09:55;4.30;;;2.28;;
44588;SDS011;30298;52.562;13.414;2023-03-26T03:12:26;5.35;;;2.75;;
44588;SDS011;30298;52.562;13.414;2023-03-26T03:14:51;4.50;;;2.30;;
44588;SDS011;30298;52.562;13.414;2023-03-26T03:17:16;3.03;;;2.60;;
44588;SDS011;30298;52.562;13.414;2023-03-26T03:19:44;4.68;;;2.70;;
44588;SDS011;30298;52.562;13.414;2023-03-26T03:22:10;2.97;;;2.20;;
44588;SDS011;30298;52.562;13.414;2023-03-26T03:24:35;4.63;;;2.53;;
44588;SDS011;30298;52.562;13.414;2023-03-26T03:27:00;3.60;;;2.23;;
44588;SDS011;30298;52.562;13.414;2023-03-26T03:29:26;5.37;;;2.70;;
44588;SDS011;30298;52.562;13.414;2023-03-26T03:31:52;5.45;;;2.67;;
44588;SDS011;30298;52.562;13.414;2023-03-26T03:34:17;2.93;;;2.40;;
44588;SDS011;30298;52.562;13.414;2023-03-26T03:36:42;4.37;;;2.00;;
44588;SDS011;30298;52.562;13.414;2023-03-26T03:39:12;4.32;;;2.72;;
44588;SDS011;30298;52.562;13.414;2023-03-26T03:41:37;5.33;;;2.53;;
44588;SDS011;30298;52.562;13.414;2023-03-26T03:44:02;3.80;;;2.40;;
44588;SDS011;30298;52.562;13.414;2023-03-26T03:46:28;4.20;;;2.50;;
44588;SDS011;30298;52.562;13.414;2023-03-26T03:48:53;4.90;;;2.00;;
44588;SDS011;30298;52.562;13.414;2023-03-26T03:51:18;4.60;;;2.30;;
44588;SDS011;30298;52.562;13.414;2023-03-26T03:53:43;7.67;;;2.63;;
44588;SDS011;30298;52.562;13.414;2023-03-26T03:56:10;4.45;;;2.50;;
44588;SDS011;30298;52.562;13.414;2023-03-26T03:58:35;3.75;;;2.40;;
44588;SDS011;30298;52.562;13.414;2023-03-26T04:01:01;4.47;;;2.75;;
44588;SDS011;30298;52.562;13.414;2023-03-26T04:03:28;5.13;;;3.00;;
44588;SDS011;30298;52.562;13.414;2023-03-26T04:05:53;4.83;;;2.87;;
44588;SDS011;30298;52.562;13.414;2023-03-26T04:08:19;4.37;;;2.83;;
44588;SDS011;30298;52.562;13.414;2023-03-26T04:10:44;5.78;;;2.75;;
44588;SDS011;30298;52.562;13.414;2023-03-26T04:13:10;8.80;;;2.77;;
44588;SDS011;30298;52.562;13.414;2023-03-26T04:15:36;3.60;;;2.42;;
44588;SDS011;30298;52.562;13.414;2023-03-26T04:18:01;3.03;;;2.30;;
44588;SDS011;30298;52.562;13.414;2023-03-26T04:20:27;6.57;;;2.90;;
44588;SDS011;30298;52.562;13.414;2023-03-26T04:22:52;7.07;;;2.60;;
44588;SDS011;30298;52.562;13.414;2023-03-26T04:25:17;4.83;;;2.40;;
44588;SDS011;30298;52.562;13.414;2023-03-26T04:27:43;5.37;;;2.27;;
44588;SDS011;30298;52.562;13.414;2023-03-26T04:30:09;5.03;;;2.90;;
44588;SDS011;30298;52.562;13.414;2023-03-26T04:32:36;4.88;;;2.70;;
44588;SDS011;30298;52.562;13.414;2023-03-26T04:35:04;5.63;;;2.97;;
44588;SDS011;30298;52.562;13.414;2023-03-26T04:37:34;7.93;;;2.78;;
44588;SDS011;30298;52.562;13.414;2023-03-26T04:40:00;6.20;;;2.45;;
44588;SDS011;30298;52.562;13.414;2023-03-26T04:42:26;7.75;;;3.00;;
44588;SDS011;30298;52.562;13.414;2023-03-26T04:52:37;3.03;;;2.50;;
44588;SDS011;30298;52.562;13.414;2023-03-26T04:55:04;6.25;;;2.55;;
44588;SDS011;30298;52.562;13.414;2023-03-26T04:57:36;5.68;;;2.55;;
44588;SDS011;30298;52.562;13.414;2023-03-26T05:00:06;4.47;;;2.30;;
44588;SDS011;30298;52.562;13.414;2023-03-26T05:02:39;6.82;;;2.70;;
44588;SDS011;30298;52.562;13.414;2023-03-26T05:05:05;3.65;;;2.25;;
44588;SDS011;30298;52.562;13.414;2023-03-26T05:07:31;6.70;;;2.50;;
44588;SDS011;30298;52.562;13.414;2023-03-26T05:09:57;5.30;;;2.40;;
44588;SDS011;30298;52.562;13.414;2023-03-26T05:12:22;6.80;;;2.27;;
44588;SDS011;30298;52.562;13.414;2023-03-26T05:14:47;5.57;;;2.53;;
44588;SDS011;30298;52.562;13.414;2023-03-26T05:17:13;4.43;;;1.97;;
44588;SDS011;30298;52.562;13.414;2023-03-26T05:19:39;3.15;;;1.80;;
44588;SDS011;30298;52.562;13.414;2023-03-26T05:24:30;3.17;;;2.55;;
44588;SDS011;30298;52.562;13.414;2023-03-26T05:26:55;4.63;;;2.33;;
44588;SDS011;30298;52.562;13.414;2023-03-26T05:29:21;5.03;;;2.57;;
44588;SDS011;30298;52.562;13.414;2023-03-26T05:31:48;3.97;;;2.70;;
44588;SDS011;30298;52.562;13.414;2023-03-26T05:34:13;4.40;;;2.37;;
44588;SDS011;30298;52.562;13.414;2023-03-26T05:36:39;5.07;;;2.40;;
44588;SDS011;30298;52.562;13.414;2023-03-26T05:39:06;4.65;;;2.00;;
44588;SDS011;30298;52.562;13.414;2023-03-26T05:41:32;4.47;;;2.72;;
44588;SDS011;30298;52.562;13.414;2023-03-26T05:43:57;3.60;;;2.40;;
44588;SDS011;30298;52.562;13.414;2023-03-26T05:46:23;4.00;;;2.77;;
44588;SDS011;30298;52.562;13.414;2023-03-26T05:48:48;8.97;;;2.73;;
44588;SDS011;30298;52.562;13.414;2023-03-26T05:51:13;6.47;;;2.63;;
44588;SDS011;30298;52.562;13.414;2023-03-26T05:53:42;5.85;;;2.85;;
44588;SDS011;30298;52.562;13.414;2023-03-26T05:56:07;7.45;;;3.40;;
44588;SDS011;30298;52.562;13.414;2023-03-26T05:58:33;5.10;;;2.40;;
44588;SDS011;30298;52.562;13.414;2023-03-26T06:03:26;5.22;;;2.63;;
44588;SDS011;30298;52.562;13.414;2023-03-26T06:05:52;9.50;;;4.13;;
44588;SDS011;30298;52.562;13.414;2023-03-26T06:08:17;3.50;;;2.67;;
44588;SDS011;30298;52.562;13.414;2023-03-26T06:10:43;5.07;;;2.17;;
44588;SDS011;30298;52.562;13.414;2023-03-26T06:13:08;5.55;;;2.53;;
44588;SDS011;30298;52.562;13.414;2023-03-26T06:15:34;2.67;;;1.90;;
44588;SDS011;30298;52.562;13.414;2023-03-26T06:17:59;4.47;;;2.13;;
44588;SDS011;30298;52.562;13.414;2023-03-26T06:20:25;3.20;;;1.90;;
44588;SDS011;30298;52.562;13.414;2023-03-26T06:22:50;3.93;;;2.10;;
44588;SDS011;30298;52.562;13.414;2023-03-26T06:25:15;4.40;;;2.20;;
44588;SDS011;30298;52.562;13.414;2023-03-26T06:27:41;3.33;;;2.07;;
44588;SDS011;30298;52.562;13.414;2023-03-26T06:30:12;3.30;;;3.00;;
44588;SDS011;30298;52.562;13.414;2023-03-26T06:32:37;2.88;;;1.98;;
44588;SDS011;30298;52.562;13.414;2023-03-26T06:35:03;5.50;;;2.10;;
44588;SDS011;30298;52.562;13.414;2023-03-26T06:37:29;4.60;;;2.50;;
44588;SDS011;30298;52.562;13.414;2023-03-26T06:39:54;3.47;;;1.75;;
44588;SDS011;30298;52.562;13.414;2023-03-26T06:42:20;5.20;;;1.93;;
44588;SDS011;30298;52.562;13.414;2023-03-26T06:44:45;4.83;;;2.47;;
44588;SDS011;30298;52.562;13.414;2023-03-26T06:47:13;3.70;;;2.00;;
44588;SDS011;30298;52.562;13.414;2023-03-26T06:49:38;4.75;;;2.33;;
44588;SDS011;30298;52.562;13.414;2023-03-26T06:52:05;4.65;;;2.22;;
44588;SDS011;30298;52.562;13.414;2023-03-26T06:54:31;3.17;;;2.43;;
44588;SDS011;30298;52.562;13.414;2023-03-26T06:56:56;5.53;;;2.60;;
44588;SDS011;30298;52.562;13.414;2023-03-26T07:01:47;5.83;;;2.30;;
44588;SDS011;30298;52.562;13.414;2023-03-26T07:04:13;5.67;;;2.40;;
44588;SDS011;30298;52.562;13.414;2023-03-26T07:06:38;4.83;;;2.40;;
44588;SDS011;30298;52.562;13.414;2023-03-26T07:09:03;4.70;;;2.80;;
44588;SDS011;30298;52.562;13.414;2023-03-26T07:11:29;4.93;;;2.57;;
44588;SDS011;30298;52.562;13.414;2023-03-26T07:13:54;7.40;;;2.20;;
44588;SDS011;30298;52.562;13.414;2023-03-26T07:16:20;5.95;;;2.20;;
44588;SDS011;30298;52.562;13.414;2023-03-26T07:18:46;3.72;;;2.30;;
44588;SDS011;30298;52.562;13.414;2023-03-26T07:21:11;12.97;;;4.43;;
44588;SDS011;30298;52.562;13.414;2023-03-26T07:23:37;8.23;;;2.80;;
44588;SDS011;30298;52.562;13.414;2023-03-26T07:34:21;6.22;;;2.70;;
44588;SDS011;30298;52.562;13.414;2023-03-26T07:37:03;5.32;;;2.40;;
44588;SDS011;30298;52.562;13.414;2023-03-26T07:39:39;4.07;;;2.15;;
44588;SDS011;30298;52.562;13.414;2023-03-26T07:45:08;7.05;;;2.55;;
44588;SDS011;30298;52.562;13.414;2023-03-26T07:47:36;2.65;;;2.25;;
44588;SDS011;30298;52.562;13.414;2023-03-26T07:50:03;3.78;;;1.85;;
44588;SDS011;30298;52.562;13.414;2023-03-26T07:52:28;6.45;;;2.00;;
44588;SDS011;30298;52.562;13.414;2023-03-26T07:54:54;4.17;;;2.60;;
44588;SDS011;30298;52.562;13.414;2023-03-26T07:57:26;5.30;;;1.92;;
44588;SDS011;30298;52.562;13.414;2023-03-26T08:02:38;4.85;;;2.50;;
44588;SDS011;30298;52.562;13.414;2023-03-26T08:05:13;3.75;;;2.30;;
44588;SDS011;30298;52.562;13.414;2023-03-26T08:10:25;4.10;;;1.95;;
44588;SDS011;30298;52.562;13.414;2023-03-26T08:15:34;4.78;;;2.03;;
44588;SDS011;30298;52.562;13.414;2023-03-26T08:18:12;5.53;;;2.20;;
44588;SDS011;30298;52.562;13.414;2023-03-26T08:25:57;5.75;;;2.30;;
44588;SDS011;30298;52.562;13.414;2023-03-26T08:30:58;6.25;;;2.65;;
44588;SDS011;30298;52.562;13.414;2023-03-26T08:33:32;8.06;;;2.64;;
44588;SDS011;30298;52.562;13.414;2023-03-26T08:35:58;5.18;;;1.98;;
44588;SDS011;30298;52.562;13.414;2023-03-26T08:38:24;7.17;;;2.77;;
44588;SDS011;30298;52.562;13.414;2023-03-26T08:43:25;5.95;;;2.47;;
44588;SDS011;30298;52.562;13.414;2023-03-26T08:46:04;4.43;;;2.28;;
44588;SDS011;30298;52.562;13.414;2023-03-26T09:03:45;4.17;;;2.70;;
44588;SDS011;30298;52.562;13.414;2023-03-26T09:08:49;6.20;;;2.80;;
44588;SDS011;30298;52.562;13.414;2023-03-26T09:29:47;7.10;;;2.70;;
44588;SDS011;30298;52.562;13.414;2023-03-26T09:40:15;5.20;;;2.20;;
44588;SDS011;30298;52.562;13.414;2023-03-26T09:47:41;6.43;;;2.30;;
44588;SDS011;30298;52.562;13.414;2023-03-26T09:53:50;6.85;;;2.45;;
44588;SDS011;30298;52.562;13.414;2023-03-26T09:55:55;6.20;;;2.38;;
44588;SDS011;30298;52.562;13.414;2023-03-26T10:01:06;7.93;;;2.67;;
44588;SDS011;30298;52.562;13.414;2023-03-26T10:03:53;10.73;;;3.92;;
44588;SDS011;30298;52.562;13.414;2023-03-26T10:06:24;10.63;;;3.88;;
44588;SDS011;30298;52.562;13.414;2023-03-26T10:09:00;11.88;;;3.10;;
44588;SDS011;30298;52.562;13.414;2023-03-26T10:11:34;9.50;;;3.15;;
44588;SDS011;30298;52.562;13.414;2023-03-26T10:29:29;8.02;;;2.67;;
44588;SDS011;30298;52.562;13.414;2023-03-26T10:32:47;10.20;;;3.05;;
44588;SDS011;30298;52.562;13.414;2023-03-26T10:53:10;8.63;;;3.13;;
44588;SDS011;30298;52.562;13.414;2023-03-26T10:55:41;7.55;;;3.00;;
44588;SDS011;30298;52.562;13.414;2023-03-26T10:58:16;3.72;;;2.78;;
44588;SDS011;30298;52.562;13.414;2023-03-26T11:00:49;6.53;;;3.67;;
44588;SDS011;30298;52.562;13.414;2023-03-26T11:14:17;5.97;;;3.05;;
44588;SDS011;30298;52.562;13.414;2023-03-26T11:16:58;9.27;;;3.33;;
44588;SDS011;30298;52.562;13.414;2023-03-26T11:22:15;7.27;;;3.43;;
44588;SDS011;30298;52.562;13.414;2023-03-26T11:30:23;8.23;;;2.70;;
44588;SDS011;30298;52.562;13.414;2023-03-26T11:32:51;8.23;;;2.88;;
44588;SDS011;30298;52.562;13.414;2023-03-26T11:35:28;8.10;;;3.75;;
44588;SDS011;30298;52.562;13.414;2023-03-26T11:38:01;6.22;;;2.53;;
44588;SDS011;30298;52.562;13.414;2023-03-26T11:40:32;4.70;;;2.13;;
44588;SDS011;30298;52.562;13.414;2023-03-26T11:42:59;7.78;;;3.17;;
44588;SDS011;30298;52.562;13.414;2023-03-26T11:45:26;5.93;;;2.78;;
44588;SDS011;30298;52.562;13.414;2023-03-26T11:47:58;9.10;;;3.20;;
44588;SDS011;30298;52.562;13.414;2023-03-26T11:50:28;8.60;;;3.40;;
44588;SDS011;30298;52.562;13.414;2023-03-26T11:52:57;4.30;;;2.28;;
44588;SDS011;30298;52.562;13.414;2023-03-26T11:55:23;8.52;;;2.92;;
44588;SDS011;30298;52.562;13.414;2023-03-26T11:57:50;7.13;;;3.35;;
44588;SDS011;30298;52.562;13.414;2023-03-26T12:00:17;5.93;;;2.92;;
44588;SDS011;30298;52.562;13.414;2023-03-26T12:02:45;9.85;;;3.20;;
44588;SDS011;30298;52.562;13.414;2023-03-26T12:05:12;7.20;;;2.60;;
44588;SDS011;30298;52.562;13.414;2023-03-26T12:07:45;4.30;;;2.40;;
44588;SDS011;30298;52.562;13.414;2023-03-26T12:10:22;6.90;;;2.30;;
44588;SDS011;30298;52.562;13.414;2023-03-26T12:12:47;6.15;;;2.60;;
44588;SDS011;30298;52.562;13.414;2023-03-26T12:15:17;4.40;;;2.60;;
44588;SDS011;30298;52.562;13.414;2023-03-26T12:17:43;4.00;;;2.15;;
44588;SDS011;30298;52.562;13.414;2023-03-26T12:22:51;4.43;;;2.35;;
44588;SDS011;30298;52.562;13.414;2023-03-26T12:25:18;3.35;;;2.50;;
44588;SDS011;30298;52.562;13.414;2023-03-26T12:27:48;5.57;;;2.30;;
44588;SDS011;30298;52.562;13.414;2023-03-26T12:30:20;6.30;;;2.42;;
44588;SDS011;30298;52.562;13.414;2023-03-26T12:32:46;3.38;;;2.25;;
44588;SDS011;30298;52.562;13.414;2023-03-26T12:35:15;6.90;;;2.40;;
44588;SDS011;30298;52.562;13.414;2023-03-26T12:37:42;8.50;;;2.22;;
44588;SDS011;30298;52.562;13.414;2023-03-26T12:42:58;5.32;;;2.20;;
44588;SDS011;30298;52.562;13.414;2023-03-26T12:45:28;3.63;;;2.10;;
44588;SDS011;30298;52.562;13.414;2023-03-26T12:47:54;4.90;;;2.10;;
44588;SDS011;30298;52.562;13.414;2023-03-26T12:50:21;4.63;;;2.00;;
44588;SDS011;30298;52.562;13.414;2023-03-26T12:52:59;4.13;;;2.20;;
44588;SDS011;30298;52.562;13.414;2023-03-26T13:00:34;2.47;;;1.80;;
44588;SDS011;30298;52.562;13.414;2023-03-26T13:03:04;4.35;;;2.08;;
44588;SDS011;30298;52.562;13.414;2023-03-26T13:10:48;3.95;;;1.90;;
44588;SDS011;30298;52.562;13.414;2023-03-26T13:15:45;6.25;;;1.90;;
44588;SDS011;30298;52.562;13.414;2023-03-26T13:18:18;5.07;;;1.90;;
44588;SDS011;30298;52.562;13.414;2023-03-26T13:25:45;5.22;;;1.67;;
44588;SDS011;30298;52.562;13.414;2023-03-26T13:28:31;2.88;;;1.75;;
44588;SDS011;30298;52.562;13.414;2023-03-26T13:31:13;3.55;;;1.85;;
44588;SDS011;30298;52.562;13.414;2023-03-26T13:33:48;2.97;;;1.73;;
44588;SDS011;30298;52.562;13.414;2023-03-26T13:36:19;3.65;;;1.73;;
44588;SDS011;30298;52.562;13.414;2023-03-26T13:44:10;3.10;;;2.03;;
44588;SDS011;30298;52.562;13.414;2023-03-26T13:46:42;1.73;;;1.38;;
44588;SDS011;30298;52.562;13.414;2023-03-26T13:49:12;2.60;;;1.90;;
44588;SDS011;30298;52.562;13.414;2023-03-26T13:56:40;3.75;;;1.70;;
44588;SDS011;30298;52.562;13.414;2023-03-26T14:01:37;2.70;;;1.80;;
44588;SDS011;30298;52.562;13.414;2023-03-26T14:04:11;3.22;;;1.70;;
44588;SDS011;30298;52.562;13.414;2023-03-26T14:11:56;3.08;;;1.77;;
44588;SDS011;30298;52.562;13.414;2023-03-26T14:14:27;2.33;;;1.98;;
44588;SDS011;30298;52.562;13.414;2023-03-26T14:16:56;3.88;;;1.85;;
44588;SDS011;30298;52.562;13.414;2023-03-26T14:32:00;3.67;;;1.60;;
44588;SDS011;30298;52.562;13.414;2023-03-26T14:37:22;3.33;;;1.70;;
44588;SDS011;30298;52.562;13.414;2023-03-26T14:42:53;4.75;;;1.75;;
44588;SDS011;30298;52.562;13.414;2023-03-26T14:45:58;3.58;;;1.70;;
44588;SDS011;30298;52.562;13.414;2023-03-26T14:50:55;3.97;;;2.00;;
44588;SDS011;30298;52.562;13.414;2023-03-26T14:53:29;2.20;;;1.58;;
44588;SDS011;30298;52.562;13.414;2023-03-26T15:01:25;4.88;;;2.00;;
44588;SDS011;30298;52.562;13.414;2023-03-26T15:34:54;9.73;;;2.43;;
44588;SDS011;30298;52.562;13.414;2023-03-26T15:37:45;4.27;;;1.93;;
44588;SDS011;30298;52.562;13.414;2023-03-26T15:41:03;3.65;;;1.80;;
44588;SDS011;30298;52.562;13.414;2023-03-26T15:43:11;5.30;;;2.08;;
44588;SDS011;30298;52.562;13.414;2023-03-26T15:45:43;4.53;;;2.05;;
44588;SDS011;30298;52.562;13.414;2023-03-26T15:53:18;4.93;;;2.65;;
44588;SDS011;30298;52.562;13.414;2023-03-26T15:58:25;6.13;;;2.40;;
44588;SDS011;30298;52.562;13.414;2023-03-26T16:03:40;7.30;;;3.05;;
44588;SDS011;30298;52.562;13.414;2023-03-26T16:06:28;5.72;;;1.98;;
44588;SDS011;30298;52.562;13.414;2023-03-26T16:09:13;3.33;;;2.00;;
44588;SDS011;30298;52.562;13.414;2023-03-26T16:11:53;5.35;;;1.80;;
44588;SDS011;30298;52.562;13.414;2023-03-26T16:14:22;6.03;;;1.95;;
44588;SDS011;30298;52.562;13.414;2023-03-26T16:16:55;5.13;;;2.03;;
44588;SDS011;30298;52.562;13.414;2023-03-26T16:21:59;3.20;;;1.80;;
44588;SDS011;30298;52.562;13.414;2023-03-26T16:24:29;4.47;;;2.53;;
44588;SDS011;30298;52.562;13.414;2023-03-26T16:32:27;4.57;;;2.08;;
44588;SDS011;30298;52.562;13.414;2023-03-26T16:34:57;6.72;;;2.20;;
44588;SDS011;30298;52.562;13.414;2023-03-26T16:37:43;4.50;;;2.05;;
44588;SDS011;30298;52.562;13.414;2023-03-26T16:45:18;6.40;;;2.78;;
44588;SDS011;30298;52.562;13.414;2023-03-26T16:53:08;4.70;;;2.47;;
44588;SDS011;30298;52.562;13.414;2023-03-26T16:55:44;7.20;;;2.78;;
44588;SDS011;30298;52.562;13.414;2023-03-26T17:00:47;6.30;;;3.10;;
44588;SDS011;30298;52.562;13.414;2023-03-26T17:06:03;4.43;;;2.30;;
44588;SDS011;30298;52.562;13.414;2023-03-26T17:10:56;7.27;;;2.03;;
44588;SDS011;30298;52.562;13.414;2023-03-26T17:16:31;4.25;;;2.65;;
44588;SDS011;30298;52.562;13.414;2023-03-26T17:19:06;7.22;;;3.00;;
44588;SDS011;30298;52.562;13.414;2023-03-26T17:24:24;7.22;;;3.05;;
44588;SDS011;30298;52.562;13.414;2023-03-26T17:31:58;5.43;;;2.58;;
44588;SDS011;30298;52.562;13.414;2023-03-26T17:35:06;10.65;;;4.25;;
44588;SDS011;30298;52.562;13.414;2023-03-26T17:52:38;11.23;;;6.70;;
44588;SDS011;30298;52.562;13.414;2023-03-26T17:55:06;8.77;;;4.22;;
44588;SDS011;30298;52.562;13.414;2023-03-26T18:00:16;5.68;;;2.47;;
44588;SDS011;30298;52.562;13.414;2023-03-26T18:05:15;8.68;;;3.35;;
44588;SDS011;30298;52.562;13.414;2023-03-26T18:17:48;6.78;;;3.20;;
44588;SDS011;30298;52.562;13.414;2023-03-26T18:20:21;8.07;;;3.20;;
44588;SDS011;30298;52.562;13.414;2023-03-26T18:22:47;5.85;;;3.33;;
44588;SDS011;30298;52.562;13.414;2023-03-26T18:25:26;6.05;;;3.53;;
44588;SDS011;30298;52.562;13.414;2023-03-26T18:27:52;8.10;;;4.85;;
44588;SDS011;30298;52.562;13.414;2023-03-26T18:30:19;13.02;;;4.45;;
44588;SDS011;30298;52.562;13.414;2023-03-26T18:32:49;7.85;;;4.45;;
44588;SDS011;30298;52.562;13.414;2023-03-26T18:35:17;8.60;;;4.50;;
44588;SDS011;30298;52.562;13.414;2023-03-26T18:37:48;10.70;;;4.63;;
44588;SDS011;30298;52.562;13.414;2023-03-26T18:40:21;7.18;;;3.80;;
44588;SDS011;30298;52.562;13.414;2023-03-26T18:42:54;7.68;;;4.10;;
44588;SDS011;30298;52.562;13.414;2023-03-26T18:45:33;10.98;;;5.07;;
44588;SDS011;30298;52.562;13.414;2023-03-26T18:50:34;7.13;;;3.27;;
44588;SDS011;30298;52.562;13.414;2023-03-26T18:53:01;8.90;;;3.05;;
44588;SDS011;30298;52.562;13.414;2023-03-26T18:55:53;8.53;;;3.50;;
44588;SDS011;30298;52.562;13.414;2023-03-26T19:00:46;7.43;;;3.40;;
44588;SDS011;30298;52.562;13.414;2023-03-26T19:03:17;5.80;;;2.58;;
44588;SDS011;30298;52.562;13.414;2023-03-26T19:05:48;6.82;;;2.83;;
44588;SDS011;30298;52.562;13.414;2023-03-26T19:08:14;5.95;;;2.80;;
44588;SDS011;30298;52.562;13.414;2023-03-26T19:10:40;6.78;;;3.15;;
44588;SDS011;30298;52.562;13.414;2023-03-26T19:13:10;10.13;;;3.00;;
44588;SDS011;30298;52.562;13.414;2023-03-26T19:15:40;8.38;;;3.72;;
44588;SDS011;30298;52.562;13.414;2023-03-26T19:18:08;10.82;;;3.97;;
44588;SDS011;30298;52.562;13.414;2023-03-26T19:20:59;9.05;;;4.43;;
44588;SDS011;30298;52.562;13.414;2023-03-26T19:23:25;7.28;;;3.22;;
44588;SDS011;30298;52.562;13.414;2023-03-26T19:25:55;6.88;;;2.95;;
44588;SDS011;30298;52.562;13.414;2023-03-26T19:28:25;8.55;;;2.92;;
44588;SDS011;30298;52.562;13.414;2023-03-26T19:30:55;8.45;;;3.75;;
44588;SDS011;30298;52.562;13.414;2023-03-26T19:33:22;14.73;;;3.20;;
44588;SDS011;30298;52.562;13.414;2023-03-26T19:35:52;9.73;;;2.90;;
44588;SDS011;30298;52.562;13.414;2023-03-26T19:38:25;9.82;;;3.30;;
44588;SDS011;30298;52.562;13.414;2023-03-26T19:40:51;12.38;;;3.17;;
44588;SDS011;30298;52.562;13.414;2023-03-26T19:43:18;7.80;;;3.25;;
44588;SDS011;30298;52.562;13.414;2023-03-26T19:45:43;8.82;;;3.70;;
44588;SDS011;30298;52.562;13.414;2023-03-26T19:48:09;12.07;;;3.75;;
44588;SDS011;30298;52.562;13.414;2023-03-26T19:50:35;9.80;;;3.50;;
44588;SDS011;30298;52.562;13.414;2023-03-26T19:55:37;13.55;;;3.72;;
44588;SDS011;30298;52.562;13.414;2023-03-26T19:58:03;9.77;;;3.38;;
44588;SDS011;30298;52.562;13.414;2023-03-26T20:02:55;17.42;;;4.32;;
44588;SDS011;30298;52.562;13.414;2023-03-26T20:05:25;7.22;;;3.40;;
44588;SDS011;30298;52.562;13.414;2023-03-26T20:07:51;6.68;;;2.60;;
44588;SDS011;30298;52.562;13.414;2023-03-26T20:10:18;12.63;;;3.47;;
44588;SDS011;30298;52.562;13.414;2023-03-26T20:12:43;10.17;;;3.00;;
44588;SDS011;30298;52.562;13.414;2023-03-26T20:17:37;9.38;;;3.78;;
44588;SDS011;30298;52.562;13.414;2023-03-26T20:20:07;9.40;;;3.05;;
44588;SDS011;30298;52.562;13.414;2023-03-26T20:22:35;18.83;;;4.20;;
44588;SDS011;30298;52.562;13.414;2023-03-26T20:25:01;13.57;;;2.97;;
44588;SDS011;30298;52.562;13.414;2023-03-26T20:27:28;13.55;;;3.72;;
44588;SDS011;30298;52.562;13.414;2023-03-26T20:29:53;13.47;;;3.20;;
44588;SDS011;30298;52.562;13.414;2023-03-26T20:32:20;13.05;;;3.08;;
44588;SDS011;30298;52.562;13.414;2023-03-26T20:34:46;11.82;;;3.00;;
44588;SDS011;30298;52.562;13.414;2023-03-26T20:37:13;11.40;;;3.63;;